LTBJ/ADB METAR and TAF weather

Enter ICAO airport designator
Station Type Date Time Source
LTBJ METAR 2019/04/20 17:50 UTC NOAA

LTBJ 201750Z 36018KT 9999 FEW030 09/M02 Q1023 NOSIG


Station Type Date Time Source
LTBJ Decoded METAR 2019/04/20 17:50 UTC NOAA

Izmir / Adnan Menderes, Turkey (LTBJ) 38-16N 027-09E 120M
Apr 20, 2019 - 01:50 PM EDT / 2019.04.20 1750 UTC
Wind: from the N (360 degrees) at 21 MPH (18 KT):0
Visibility: greater than 7 mile(s):0
Sky conditions: mostly clear
Temperature: 48 F (9 C)
Dew Point: 28 F (-2 C)
Relative Humidity: 45%
Pressure (altimeter): 30.21 in. Hg (1023 hPa)
ob: LTBJ 201750Z 36018KT 9999 FEW030 09/M02 Q1023 NOSIG
cycle: 18

Station Type Date Time Source
LTBJ TAF 2019/04/20 18:03 UTC NOAA

TAF LTBJ 201640Z 2018/2118 36014KT CAVOK
BECMG 2104/2106 01018G35KT
BECMG 2106/2109 FEW030

Example: see airport list